Time;durP1;ratioP1;P1;durP2;ratioP2;P2;SDS_P1;SDS_P2;PMS_P1;PMS_P2;Temp;Humidity;BMP_temperature;BMP_pressure;BME280_temperature;BME280_humidity;BME280_pressure;Samples;Min_cycle;Max_cycle;Signal;HPM_P1;HPM_P2
2023/12/28 00:02:01;;;;;;;0.50;0.50;;;12.30;69.70;;;;;;5074022;28;20033;-69
2023/12/28 00:04:28;;;;;;;0.50;0.50;;;12.30;69.80;;;;;;5073509;28;20032;-69
2023/12/28 00:06:53;;;;;;;0.50;0.50;;;12.30;69.80;;;;;;5074080;28;20064;-69
2023/12/28 00:09:19;;;;;;;0.40;0.40;;;12.20;70.00;;;;;;5073805;28;20056;-69
2023/12/28 00:11:44;;;;;;;0.60;0.60;;;12.30;70.30;;;;;;5073796;28;20544;-69
2023/12/28 00:14:10;;;;;;;0.50;0.50;;;12.20;70.40;;;;;;5073667;28;20384;-69
2023/12/28 00:16:37;;;;;;;0.50;0.50;;;12.20;70.60;;;;;;5073716;28;20029;-69
2023/12/28 00:19:03;;;;;;;0.90;0.90;;;12.20;70.70;;;;;;5073638;28;20066;-70
2023/12/28 00:21:29;;;;;;;1.27;1.05;;;12.30;70.80;;;;;;5073981;28;20086;-70
2023/12/28 00:23:55;;;;;;;0.40;0.40;;;12.30;70.90;;;;;;5073730;28;20029;-69
2023/12/28 00:26:21;;;;;;;0.60;0.60;;;12.30;71.00;;;;;;5055438;28;20025;-70
2023/12/28 00:28:47;;;;;;;0.77;0.77;;;12.30;71.10;;;;;;5073405;28;20025;-71
2023/12/28 00:31:13;;;;;;;0.45;0.45;;;12.30;71.10;;;;;;5073845;28;20035;-70
2023/12/28 00:33:38;;;;;;;0.40;0.40;;;12.30;71.10;;;;;;5055312;28;20021;-71
2023/12/28 00:36:04;;;;;;;0.40;0.40;;;12.30;71.20;;;;;;5073717;28;20067;-70
2023/12/28 00:38:29;;;;;;;0.40;0.40;;;12.30;71.20;;;;;;5073386;28;20369;-70
2023/12/28 00:40:55;;;;;;;0.43;0.43;;;12.30;71.30;;;;;;5073623;28;20040;-70
2023/12/28 00:43:21;;;;;;;2.95;0.95;;;12.30;71.30;;;;;;5073375;28;20499;-70
2023/12/28 00:45:46;;;;;;;0.50;0.50;;;12.30;71.50;;;;;;5073394;28;20032;-70
2023/12/28 00:48:11;;;;;;;0.60;0.60;;;12.30;71.60;;;;;;5073051;28;20032;-70
2023/12/28 00:50:37;;;;;;;0.40;0.40;;;12.30;71.60;;;;;;5073342;28;20036;-70
2023/12/28 00:53:03;;;;;;;0.50;0.50;;;12.30;71.70;;;;;;5073147;28;20025;-70
2023/12/28 00:55:28;;;;;;;0.43;0.43;;;12.40;71.60;;;;;;5072805;28;20426;-70
2023/12/28 00:57:54;;;;;;;0.50;0.50;;;12.40;71.60;;;;;;5072904;28;20078;-70
2023/12/28 01:00:20;;;;;;;0.93;0.77;;;12.40;71.60;;;;;;5073403;28;20056;-71
2023/12/28 01:02:49;;;;;;;0.75;0.75;;;12.50;71.60;;;;;;5072876;28;20111;-71
2023/12/28 01:05:14;;;;;;;0.43;0.43;;;12.50;71.70;;;;;;5072796;28;20033;-72
2023/12/28 01:07:40;;;;;;;0.40;0.40;;;12.50;71.80;;;;;;5072713;28;20021;-71
2023/12/28 01:10:06;;;;;;;0.50;0.50;;;12.50;71.70;;;;;;5054983;28;20029;-71
2023/12/28 01:12:32;;;;;;;0.40;0.40;;;12.60;71.70;;;;;;5072642;28;20025;-71
2023/12/28 01:14:57;;;;;;;0.40;0.40;;;12.60;71.70;;;;;;5072674;28;20044;-71
2023/12/28 01:17:22;;;;;;;0.55;0.55;;;12.70;71.60;;;;;;5071863;28;20056;-71
2023/12/28 01:19:48;;;;;;;0.40;0.40;;;12.70;71.50;;;;;;5072704;28;20143;-70
2023/12/28 01:22:13;;;;;;;0.50;0.50;;;12.70;71.60;;;;;;5072590;28;20052;-71
2023/12/28 01:24:39;;;;;;;0.40;0.40;;;12.70;71.60;;;;;;5072673;28;20033;-71
2023/12/28 01:27:05;;;;;;;0.40;0.40;;;12.70;71.50;;;;;;5072314;28;20047;-71
2023/12/28 01:29:30;;;;;;;1.02;1.02;;;12.80;71.40;;;;;;5072197;28;20531;-70
2023/12/28 01:31:56;;;;;;;0.40;0.40;;;12.80;71.40;;;;;;5072253;28;20024;-71
2023/12/28 01:34:22;;;;;;;0.47;0.47;;;12.80;71.40;;;;;;5072083;28;20495;-71
2023/12/28 01:36:47;;;;;;;0.40;0.40;;;12.90;71.50;;;;;;5072023;28;20075;-71
2023/12/28 01:39:15;;;;;;;0.40;0.40;;;13.00;71.50;;;;;;5072145;28;20036;-71
2023/12/28 01:41:40;;;;;;;0.40;0.40;;;13.00;71.30;;;;;;5072348;28;20492;-70
2023/12/28 01:44:06;;;;;;;0.50;0.50;;;13.00;71.30;;;;;;5072061;28;20051;-70
2023/12/28 01:46:33;;;;;;;0.40;0.40;;;13.00;71.20;;;;;;5071947;28;20487;-71
2023/12/28 01:48:59;;;;;;;0.57;0.57;;;13.10;71.20;;;;;;5071930;28;20019;-70
2023/12/28 01:51:25;;;;;;;0.50;0.50;;;13.10;71.20;;;;;;5072342;28;20032;-70
2023/12/28 01:53:51;;;;;;;0.40;0.40;;;13.10;71.00;;;;;;5071707;28;20020;-71
2023/12/28 01:56:18;;;;;;;0.50;0.50;;;13.10;70.80;;;;;;5071691;28;20456;-71
2023/12/28 01:58:46;;;;;;;0.40;0.40;;;13.10;70.80;;;;;;5072157;28;20036;-70
2023/12/28 02:01:11;;;;;;;0.60;0.60;;;13.00;70.70;;;;;;5072114;28;20135;-70
2023/12/28 02:03:38;;;;;;;0.43;0.43;;;13.10;70.70;;;;;;5071670;28;20033;-70
2023/12/28 02:06:06;;;;;;;0.40;0.40;;;13.00;70.60;;;;;;5071980;28;20052;-70
2023/12/28 02:08:32;;;;;;;0.50;0.50;;;13.00;70.70;;;;;;5071764;28;20491;-69
2023/12/28 02:10:58;;;;;;;0.47;0.47;;;13.00;70.80;;;;;;5072004;28;20025;-70
2023/12/28 02:13:24;;;;;;;0.50;0.50;;;13.00;70.90;;;;;;5071584;28;20059;-71
2023/12/28 02:16:12;;;;;;;0.90;0.90;;;13.00;70.80;;;;;;5072130;28;20086;-70
2023/12/28 02:18:42;;;;;;;0.50;0.50;;;13.00;70.80;;;;;;5071364;28;20027;-70
2023/12/28 02:21:08;;;;;;;0.40;0.40;;;13.00;70.80;;;;;;5053795;28;20037;-70
2023/12/28 02:23:34;;;;;;;3.40;1.17;;;13.00;70.60;;;;;;5071397;28;20115;-70
2023/12/28 02:26:00;;;;;;;0.50;0.50;;;12.90;70.60;;;;;;5071702;28;20170;-71
2023/12/28 02:28:25;;;;;;;0.40;0.40;;;12.90;70.50;;;;;;5071414;28;20021;-71
2023/12/28 02:30:51;;;;;;;0.45;0.45;;;12.90;70.60;;;;;;5071938;28;20109;-70
2023/12/28 02:33:29;;;;;;;0.50;0.50;;;13.00;70.70;;;;;;5071279;28;20025;-71
2023/12/28 02:36:05;;;;;;;0.40;0.40;;;12.90;70.70;;;;;;5071592;28;20503;-70
2023/12/28 02:38:35;;;;;;;0.43;0.43;;;12.90;70.60;;;;;;5071334;28;20016;-71
2023/12/28 02:41:02;;;;;;;0.43;0.43;;;13.00;70.60;;;;;;5071703;28;20028;-71
2023/12/28 02:43:28;;;;;;;0.50;0.50;;;12.90;70.70;;;;;;5071241;28;20028;-71
2023/12/28 02:45:53;;;;;;;0.57;0.57;;;12.90;70.80;;;;;;5071641;28;20517;-71
2023/12/28 02:48:19;;;;;;;1.00;1.00;;;13.00;70.90;;;;;;5071286;28;20032;-71
2023/12/28 02:50:45;;;;;;;0.60;0.60;;;13.00;71.00;;;;;;5071470;28;20029;-70
2023/12/28 02:53:10;;;;;;;0.40;0.40;;;13.00;70.80;;;;;;5071209;28;20052;-70
2023/12/28 02:55:36;;;;;;;0.50;0.50;;;13.00;70.90;;;;;;5071036;28;20044;-70
2023/12/28 02:58:01;;;;;;;0.50;0.50;;;13.00;70.90;;;;;;5071031;28;20115;-71
2023/12/28 03:00:27;;;;;;;0.47;0.47;;;13.00;70.90;;;;;;5071610;28;20083;-71
2023/12/28 03:02:53;;;;;;;0.50;0.50;;;13.00;70.80;;;;;;5071275;28;20500;-71
2023/12/28 03:05:19;;;;;;;0.40;0.40;;;13.00;70.80;;;;;;5071133;28;20072;-70
2023/12/28 03:07:46;;;;;;;0.50;0.50;;;13.00;70.70;;;;;;5070945;28;20052;-70
2023/12/28 03:10:12;;;;;;;0.47;0.47;;;13.00;70.80;;;;;;5071186;28;20078;-70
2023/12/28 03:12:37;;;;;;;0.40;0.40;;;13.00;70.70;;;;;;5070983;28;20029;-70
2023/12/28 03:15:04;;;;;;;0.50;0.50;;;13.00;70.70;;;;;;5071046;28;20048;-70
2023/12/28 03:17:30;;;;;;;0.50;0.50;;;13.00;70.70;;;;;;5071191;28;20020;-70
2023/12/28 03:19:58;;;;;;;0.43;0.43;;;13.00;70.80;;;;;;5071546;28;20109;-69
2023/12/28 03:22:23;;;;;;;0.60;0.60;;;13.00;70.80;;;;;;5070857;28;20475;-69
2023/12/28 03:24:49;;;;;;;0.70;0.70;;;13.00;70.70;;;;;;5070844;28;20040;-69
2023/12/28 03:27:15;;;;;;;0.40;0.40;;;13.00;70.70;;;;;;5070807;28;20029;-69
2023/12/28 03:29:43;;;;;;;0.50;0.50;;;13.00;70.80;;;;;;5071182;28;20025;-69
2023/12/28 03:32:09;;;;;;;0.50;0.50;;;13.00;70.70;;;;;;5071051;28;20032;-69
2023/12/28 03:34:35;;;;;;;0.65;0.65;;;13.00;70.70;;;;;;5070840;28;20020;-70
2023/12/28 03:37:00;;;;;;;0.57;0.57;;;13.00;70.70;;;;;;5070854;28;20059;-70
2023/12/28 03:39:26;;;;;;;0.50;0.50;;;13.00;70.70;;;;;;5071235;28;20045;-70
2023/12/28 03:41:55;;;;;;;0.40;0.40;;;13.00;70.70;;;;;;5074418;28;20032;-69
2023/12/28 03:44:21;;;;;;;0.47;0.47;;;13.00;70.80;;;;;;5074273;28;20480;-70
2023/12/28 03:46:51;;;;;;;0.73;0.73;;;13.00;70.90;;;;;;5074184;28;20537;-70
2023/12/28 03:49:20;;;;;;;0.50;0.50;;;13.00;70.90;;;;;;5074051;28;20016;-71
2023/12/28 03:51:47;;;;;;;0.40;0.40;;;13.10;70.90;;;;;;5074162;28;20036;-70
2023/12/28 03:54:16;;;;;;;1.17;1.10;;;13.00;70.80;;;;;;5073927;28;20468;-70
2023/12/28 03:56:43;;;;;;;0.60;0.60;;;13.00;70.70;;;;;;5074128;28;20040;-70
2023/12/28 03:59:09;;;;;;;0.50;0.50;;;13.10;70.70;;;;;;5073839;28;20023;-71
2023/12/28 04:01:35;;;;;;;0.50;0.50;;;13.10;70.80;;;;;;5074172;28;20111;-70
2023/12/28 04:04:01;;;;;;;0.85;0.85;;;13.10;70.80;;;;;;5073927;28;20112;-70
2023/12/28 04:06:26;;;;;;;0.40;0.40;;;13.10;70.70;;;;;;5074208;28;20045;-71
2023/12/28 04:08:52;;;;;;;0.40;0.40;;;13.10;70.70;;;;;;5073852;28;20032;-71
2023/12/28 04:11:18;;;;;;;0.40;0.40;;;13.10;70.70;;;;;;5074187;28;20035;-71
2023/12/28 04:13:43;;;;;;;0.68;0.68;;;13.10;70.80;;;;;;5073836;28;20433;-70
2023/12/28 04:16:15;;;;;;;0.45;0.45;;;13.10;70.70;;;;;;5056077;28;20044;-70
2023/12/28 04:18:42;;;;;;;0.40;0.40;;;13.00;70.70;;;;;;5074009;28;20489;-70
2023/12/28 04:21:13;;;;;;;0.40;0.40;;;13.10;70.60;;;;;;5056029;28;20155;-70
2023/12/28 04:23:40;;;;;;;0.40;0.40;;;13.10;70.70;;;;;;5073855;28;20091;-70
2023/12/28 04:26:06;;;;;;;0.43;0.43;;;13.00;70.70;;;;;;5073743;28;20040;-70
2023/12/28 04:28:34;;;;;;;0.65;0.65;;;13.00;70.80;;;;;;5073662;28;20388;-70
2023/12/28 04:31:07;;;;;;;0.43;0.43;;;13.00;70.90;;;;;;5073762;28;20025;-70
2023/12/28 04:33:32;;;;;;;0.50;0.50;;;13.10;70.90;;;;;;5073492;28;20051;-69
2023/12/28 04:36:05;;;;;;;0.60;0.60;;;13.10;70.70;;;;;;5073647;28;20040;-69
2023/12/28 04:38:33;;;;;;;0.40;0.40;;;13.10;70.70;;;;;;5073326;28;20430;-69
2023/12/28 04:40:59;;;;;;;0.40;0.40;;;13.10;70.80;;;;;;5073520;28;20030;-70
2023/12/28 04:43:25;;;;;;;0.40;0.40;;;13.10;70.70;;;;;;5073199;28;20468;-70
2023/12/28 04:45:51;;;;;;;0.40;0.40;;;13.10;70.70;;;;;;5055201;28;20037;-69
2023/12/28 04:48:20;;;;;;;0.50;0.50;;;13.00;70.80;;;;;;5073326;28;20032;-70
2023/12/28 04:50:48;;;;;;;1.45;1.35;;;13.10;70.70;;;;;;5054881;28;20484;-68
2023/12/28 04:53:13;;;;;;;0.40;0.40;;;13.10;70.70;;;;;;5054958;28;20462;-68
2023/12/28 04:55:39;;;;;;;0.40;0.40;;;13.10;70.80;;;;;;5072826;28;20060;-69
2023/12/28 04:58:05;;;;;;;0.50;0.50;;;13.10;70.70;;;;;;5072958;28;20067;-70
2023/12/28 05:00:30;;;;;;;0.68;0.68;;;13.10;70.70;;;;;;5073163;28;20036;-68
2023/12/28 05:02:56;;;;;;;0.60;0.60;;;13.10;70.70;;;;;;5072912;28;20033;-70
2023/12/28 05:05:21;;;;;;;0.43;0.43;;;13.10;70.80;;;;;;5072674;28;20511;-69
2023/12/28 05:07:47;;;;;;;0.50;0.50;;;13.10;70.70;;;;;;5073090;28;20016;-69
2023/12/28 05:10:13;;;;;;;0.45;0.45;;;13.10;70.50;;;;;;5072601;28;20025;-69
2023/12/28 05:12:38;;;;;;;0.40;0.40;;;13.10;70.60;;;;;;5072674;28;20025;-68
2023/12/28 05:15:04;;;;;;;0.60;0.60;;;13.10;70.60;;;;;;5072762;28;20039;-69
2023/12/28 05:17:30;;;;;;;0.50;0.50;;;13.10;70.60;;;;;;5072544;28;20025;-70
2023/12/28 05:19:56;;;;;;;0.50;0.50;;;13.10;70.60;;;;;;5072590;28;20029;-69
2023/12/28 05:22:21;;;;;;;0.40;0.40;;;13.10;70.60;;;;;;5072645;28;20012;-70
2023/12/28 05:24:47;;;;;;;0.70;0.70;;;13.10;70.80;;;;;;5072784;28;20111;-68
2023/12/28 05:27:12;;;;;;;0.52;0.52;;;13.20;70.90;;;;;;5072331;28;20040;-68
2023/12/28 05:29:38;;;;;;;0.80;0.80;;;13.20;71.10;;;;;;5072435;28;20071;-68
2023/12/28 05:32:04;;;;;;;1.13;0.65;;;13.30;71.10;;;;;;5072216;28;20116;-69
2023/12/28 05:34:30;;;;;;;0.35;0.35;;;13.30;71.00;;;;;;5072123;28;20035;-69
2023/12/28 05:36:55;;;;;;;0.50;0.50;;;13.30;71.10;;;;;;5072303;28;20036;-69
2023/12/28 05:39:21;;;;;;;0.40;0.40;;;13.40;71.10;;;;;;5072421;28;20116;-69
2023/12/28 05:41:47;;;;;;;0.50;0.50;;;13.40;71.20;;;;;;5072157;28;20029;-69
2023/12/28 05:44:14;;;;;;;0.50;0.50;;;13.50;71.00;;;;;;5071884;28;20020;-69
2023/12/28 05:46:39;;;;;;;0.40;0.40;;;13.60;70.90;;;;;;5072019;28;20112;-69
2023/12/28 05:49:05;;;;;;;0.32;0.32;;;13.50;70.80;;;;;;5071872;28;20099;-70
2023/12/28 05:51:40;;;;;;;0.40;0.40;;;13.50;70.80;;;;;;5072313;28;20029;-69
2023/12/28 05:54:06;;;;;;;0.40;0.40;;;13.50;70.60;;;;;;5071813;28;20116;-69
2023/12/28 05:56:32;;;;;;;4.68;1.67;;;13.50;70.60;;;;;;5071698;28;20495;-70
2023/12/28 05:58:57;;;;;;;0.43;0.43;;;13.50;70.60;;;;;;5071808;28;20032;-70
2023/12/28 06:01:23;;;;;;;0.50;0.50;;;13.50;70.50;;;;;;5072431;28;20119;-69
2023/12/28 06:03:52;;;;;;;0.63;0.63;;;13.50;70.30;;;;;;5071551;28;20384;-69
2023/12/28 06:06:18;;;;;;;0.40;0.40;;;13.40;70.20;;;;;;5071966;28;20131;-69
2023/12/28 06:08:44;;;;;;;0.70;0.70;;;13.40;70.10;;;;;;5053675;28;20020;-69
2023/12/28 06:11:10;;;;;;;0.60;0.60;;;13.30;70.00;;;;;;5072049;28;20047;-70
2023/12/28 06:13:35;;;;;;;0.32;0.32;;;13.30;70.00;;;;;;5071585;28;20150;-70
2023/12/28 06:16:01;;;;;;;0.40;0.40;;;13.30;70.00;;;;;;5071859;28;20115;-70
2023/12/28 06:18:26;;;;;;;0.40;0.40;;;13.30;70.50;;;;;;5071878;28;20029;-70
2023/12/28 06:20:52;;;;;;;0.52;0.52;;;13.30;70.60;;;;;;5071888;28;20516;-70
2023/12/28 06:23:17;;;;;;;0.55;0.55;;;13.40;70.70;;;;;;5071390;28;20046;-70
2023/12/28 06:25:43;;;;;;;0.60;0.60;;;13.40;70.80;;;;;;5071870;28;20033;-68
2023/12/28 06:28:09;;;;;;;0.40;0.40;;;13.50;70.60;;;;;;5071352;28;20112;-68
2023/12/28 06:30:34;;;;;;;0.50;0.50;;;13.50;70.60;;;;;;5071674;28;20443;-69
2023/12/28 06:33:00;;;;;;;0.40;0.40;;;13.50;70.60;;;;;;5071538;28;20021;-70
2023/12/28 06:35:25;;;;;;;0.50;0.50;;;13.50;70.60;;;;;;5071565;28;20043;-69
2023/12/28 06:37:51;;;;;;;0.50;0.50;;;13.50;70.50;;;;;;5071286;28;20411;-69
2023/12/28 06:40:16;;;;;;;0.40;0.40;;;13.50;70.50;;;;;;5071422;28;20539;-69
2023/12/28 06:42:43;;;;;;;0.40;0.40;;;13.50;70.50;;;;;;5071374;28;20052;-69
2023/12/28 06:45:09;;;;;;;0.40;0.40;;;13.50;70.50;;;;;;5071279;28;20116;-69
2023/12/28 06:47:35;;;;;;;0.80;0.80;;;13.60;70.40;;;;;;5071455;28;20475;-69
2023/12/28 06:50:00;;;;;;;0.50;0.50;;;13.50;70.30;;;;;;5071474;28;20115;-68
2023/12/28 06:52:26;;;;;;;0.60;0.60;;;13.50;70.10;;;;;;5071169;28;20434;-68
2023/12/28 06:54:53;;;;;;;0.40;0.40;;;13.50;70.10;;;;;;5070906;28;20060;-68
2023/12/28 06:57:18;;;;;;;0.50;0.50;;;13.50;70.20;;;;;;5070919;28;20028;-68
2023/12/28 06:59:44;;;;;;;0.50;0.50;;;13.50;70.30;;;;;;5071176;28;20495;-69
2023/12/28 07:02:09;;;;;;;0.50;0.50;;;13.50;70.20;;;;;;5071024;28;20028;-68
2023/12/28 07:04:35;;;;;;;0.40;0.40;;;13.40;70.20;;;;;;5071316;28;20036;-69
2023/12/28 07:07:01;;;;;;;0.45;0.45;;;13.50;70.30;;;;;;5070790;28;20033;-69
2023/12/28 07:09:26;;;;;;;0.65;0.65;;;13.50;70.40;;;;;;5070887;28;20499;-70
2023/12/28 07:11:52;;;;;;;0.40;0.40;;;13.50;70.50;;;;;;5070945;28;20028;-69
2023/12/28 07:14:17;;;;;;;0.40;0.40;;;13.50;70.70;;;;;;5071057;28;20419;-69
2023/12/28 07:16:43;;;;;;;0.65;0.65;;;13.50;70.50;;;;;;5074816;28;20373;-70
2023/12/28 07:19:08;;;;;;;0.45;0.45;;;13.50;70.60;;;;;;5056948;28;20036;-68
2023/12/28 07:21:34;;;;;;;0.55;0.55;;;13.60;70.50;;;;;;5074668;28;20387;-69
2023/12/28 07:23:59;;;;;;;0.55;0.55;;;13.60;70.50;;;;;;5056741;28;20028;-69
2023/12/28 07:26:25;;;;;;;0.50;0.50;;;13.70;70.50;;;;;;5074850;28;20032;-69
2023/12/28 07:28:51;;;;;;;0.50;0.50;;;13.70;70.40;;;;;;5074737;28;20031;-69
2023/12/28 07:31:27;;;;;;;0.40;0.40;;;13.70;70.40;;;;;;5074783;28;20028;-71
2023/12/28 07:33:53;;;;;;;0.40;0.40;;;13.60;70.40;;;;;;5074491;28;20500;-69
2023/12/28 07:36:19;;;;;;;0.40;0.40;;;13.70;70.30;;;;;;5074694;28;20025;-69
2023/12/28 07:38:44;;;;;;;2.00;0.93;;;13.60;70.20;;;;;;5074585;28;20028;-69
2023/12/28 07:41:10;;;;;;;0.75;0.75;;;13.60;70.20;;;;;;5074578;28;20032;-69
2023/12/28 07:43:36;;;;;;;0.40;0.40;;;13.60;70.00;;;;;;5074606;28;20028;-69
2023/12/28 07:46:02;;;;;;;0.50;0.50;;;13.60;70.30;;;;;;5074500;28;20037;-69
2023/12/28 07:48:30;;;;;;;0.50;0.50;;;13.60;70.20;;;;;;5074499;28;20024;-69
2023/12/28 07:50:56;;;;;;;0.60;0.60;;;13.70;70.20;;;;;;5074095;28;20070;-69
2023/12/28 07:53:22;;;;;;;0.50;0.50;;;13.70;70.40;;;;;;5074089;28;20021;-69
2023/12/28 07:55:47;;;;;;;0.55;0.55;;;13.70;70.40;;;;;;5074181;28;20404;-69
2023/12/28 07:58:13;;;;;;;0.43;0.43;;;13.70;70.40;;;;;;5074065;28;20304;-69
2023/12/28 08:00:38;;;;;;;0.50;0.50;;;13.80;70.50;;;;;;5074303;28;20082;-69
2023/12/28 08:03:04;;;;;;;0.50;0.50;;;13.80;70.50;;;;;;5073929;28;20115;-70
2023/12/28 08:05:29;;;;;;;0.55;0.55;;;13.80;70.50;;;;;;5074004;28;20037;-70
2023/12/28 08:07:55;;;;;;;0.70;0.70;;;13.80;70.50;;;;;;5073898;28;20028;-69
2023/12/28 08:10:21;;;;;;;0.60;0.60;;;13.90;70.30;;;;;;5074168;28;20130;-70
2023/12/28 08:12:46;;;;;;;0.40;0.40;;;13.90;70.50;;;;;;5073881;28;20033;-70
2023/12/28 08:15:12;;;;;;;0.93;0.88;;;14.00;70.40;;;;;;5073915;28;20036;-69
2023/12/28 08:17:38;;;;;;;0.40;0.40;;;14.00;70.30;;;;;;5073713;28;20380;-70
2023/12/28 08:20:05;;;;;;;0.68;0.68;;;14.00;70.20;;;;;;5073673;28;20044;-69
2023/12/28 08:22:31;;;;;;;0.50;0.50;;;14.00;70.40;;;;;;5073581;28;20024;-70
2023/12/28 08:24:57;;;;;;;0.50;0.50;;;14.00;70.30;;;;;;5073592;28;20115;-69
2023/12/28 08:27:23;;;;;;;0.40;0.40;;;14.10;70.40;;;;;;5073344;28;20020;-70
2023/12/28 08:29:48;;;;;;;0.70;0.70;;;14.10;70.00;;;;;;5073635;28;20039;-70
2023/12/28 08:32:14;;;;;;;0.50;0.50;;;14.10;70.00;;;;;;5073365;28;20059;-71
2023/12/28 08:34:39;;;;;;;0.45;0.45;;;14.10;70.20;;;;;;5055406;28;20476;-70
2023/12/28 08:37:05;;;;;;;1.55;1.40;;;14.10;70.30;;;;;;5073325;28;20033;-70
2023/12/28 08:39:31;;;;;;;0.50;0.50;;;14.20;70.30;;;;;;5055234;28;20128;-70
2023/12/28 08:41:57;;;;;;;0.40;0.40;;;14.20;70.20;;;;;;5073472;28;20103;-75
2023/12/28 08:44:23;;;;;;;0.65;0.65;;;14.20;70.20;;;;;;5073149;28;20024;-70
2023/12/28 08:46:48;;;;;;;0.50;0.50;;;14.30;70.00;;;;;;5073172;28;20430;-70
2023/12/28 08:49:15;;;;;;;0.50;0.50;;;14.20;70.10;;;;;;5073123;28;20028;-70
2023/12/28 08:51:41;;;;;;;0.80;0.80;;;14.30;70.40;;;;;;5073099;28;20016;-69
2023/12/28 08:54:08;;;;;;;0.40;0.40;;;14.30;70.10;;;;;;5072886;28;20032;-71
2023/12/28 08:56:33;;;;;;;0.40;0.40;;;14.40;69.90;;;;;;5072845;28;20563;-69
2023/12/28 08:58:59;;;;;;;1.50;1.40;;;14.40;70.20;;;;;;5073251;28;20055;-70
2023/12/28 09:01:25;;;;;;;0.40;0.40;;;14.40;70.00;;;;;;5073290;28;20101;-69
2023/12/28 09:03:52;;;;;;;0.50;0.50;;;14.50;70.30;;;;;;5072746;28;20024;-70
2023/12/28 09:06:18;;;;;;;0.40;0.40;;;14.60;70.60;;;;;;5073021;28;20403;-70
2023/12/28 09:08:45;;;;;;;0.60;0.60;;;14.80;70.70;;;;;;5073070;28;20024;-71
2023/12/28 09:11:11;;;;;;;0.50;0.50;;;14.90;70.60;;;;;;5073210;28;20475;-70
2023/12/28 09:13:37;;;;;;;0.40;0.40;;;15.00;70.00;;;;;;5071007;28;20032;-71
2023/12/28 09:16:03;;;;;;;0.52;0.52;;;15.00;69.90;;;;;;5073427;28;20037;-71
2023/12/28 09:18:29;;;;;;;0.43;0.43;;;15.00;69.30;;;;;;5074011;28;20047;-70
2023/12/28 09:20:55;;;;;;;0.43;0.43;;;15.00;69.50;;;;;;5072497;28;20036;-71
2023/12/28 09:23:20;;;;;;;0.40;0.40;;;15.00;68.80;;;;;;5071865;28;20535;-70
2023/12/28 09:25:46;;;;;;;0.50;0.50;;;15.00;69.20;;;;;;5071416;28;20059;-70
2023/12/28 09:28:13;;;;;;;0.50;0.50;;;15.10;69.70;;;;;;5071815;28;20087;-71
2023/12/28 09:30:38;;;;;;;0.98;0.95;;;15.30;71.20;;;;;;5071334;28;20444;-71
2023/12/28 09:33:04;;;;;;;0.50;0.50;;;15.60;70.60;;;;;;5072746;28;20124;-71
2023/12/28 09:35:29;;;;;;;1.17;1.13;;;15.70;69.00;;;;;;5072461;28;20032;-70
2023/12/28 09:37:56;;;;;;;0.40;0.40;;;15.70;69.20;;;;;;5071653;28;20085;-70
2023/12/28 09:40:21;;;;;;;0.50;0.50;;;15.70;68.70;;;;;;5072233;28;20086;-70
2023/12/28 09:42:56;;;;;;;0.50;0.50;;;15.70;68.00;;;;;;5072168;28;20446;-70
2023/12/28 09:45:22;;;;;;;0.68;0.65;;;15.60;69.40;;;;;;5054176;28;20054;-71
2023/12/28 09:47:50;;;;;;;0.50;0.50;;;15.70;67.80;;;;;;5072103;28;20543;-70
2023/12/28 09:50:18;;;;;;;0.40;0.40;;;15.60;67.40;;;;;;5072287;28;20032;-70
2023/12/28 09:52:44;;;;;;;0.40;0.40;;;15.60;67.70;;;;;;5072116;28;20024;-68
2023/12/28 09:55:10;;;;;;;0.60;0.60;;;15.60;67.50;;;;;;5072237;28;20449;-70
2023/12/28 09:57:37;;;;;;;0.40;0.40;;;15.50;67.40;;;;;;5071810;28;20020;-69
2023/12/28 10:00:03;;;;;;;0.50;0.50;;;15.50;67.70;;;;;;5072122;28;20072;-70
2023/12/28 10:02:30;;;;;;;0.45;0.45;;;15.50;68.00;;;;;;5071816;28;20017;-70
2023/12/28 10:04:55;;;;;;;0.40;0.40;;;15.50;67.50;;;;;;5072010;28;20097;-70
2023/12/28 10:07:21;;;;;;;0.50;0.50;;;15.50;67.50;;;;;;5053767;28;20029;-70
2023/12/28 10:09:47;;;;;;;0.60;0.60;;;15.50;67.10;;;;;;5071896;28;20120;-71
2023/12/28 10:12:12;;;;;;;0.50;0.50;;;15.50;67.50;;;;;;5071969;28;20012;-70
2023/12/28 10:14:38;;;;;;;0.50;0.50;;;15.50;68.00;;;;;;5071649;28;20037;-70
2023/12/28 10:17:04;;;;;;;0.70;0.70;;;15.50;68.00;;;;;;5071688;28;20495;-69
2023/12/28 10:19:29;;;;;;;0.45;0.45;;;15.70;68.60;;;;;;5071840;28;20032;-68
2023/12/28 10:21:55;;;;;;;0.90;0.90;;;15.80;68.80;;;;;;5071320;28;20107;-68
2023/12/28 10:24:21;;;;;;;0.60;0.60;;;15.90;68.50;;;;;;5071627;28;20021;-68
2023/12/28 10:26:46;;;;;;;0.52;0.52;;;16.00;68.30;;;;;;5071656;28;20024;-68
2023/12/28 10:29:13;;;;;;;5.28;0.82;;;16.10;69.00;;;;;;5071983;28;20055;-68
2023/12/28 10:31:42;;;;;;;0.47;0.47;;;16.20;67.50;;;;;;5053358;28;20036;-68
2023/12/28 10:34:08;;;;;;;0.47;0.47;;;16.10;66.60;;;;;;5071252;28;20023;-67
2023/12/28 10:36:36;;;;;;;1.75;1.35;;;16.10;67.70;;;;;;5071539;28;20378;-68
2023/12/28 10:39:04;;;;;;;0.47;0.47;;;16.10;68.20;;;;;;5071263;28;20029;-69
2023/12/28 10:41:32;;;;;;;0.40;0.40;;;16.10;67.70;;;;;;5071765;28;20378;-68
2023/12/28 10:44:05;;;;;;;1.13;1.02;;;16.10;67.70;;;;;;5071451;28;20025;-68
2023/12/28 10:46:32;;;;;;;0.80;0.80;;;16.10;66.80;;;;;;5071675;28;20119;-68
2023/12/28 10:49:14;;;;;;;0.50;0.50;;;16.00;67.30;;;;;;5071367;28;20020;-68
2023/12/28 10:51:48;;;;;;;0.68;0.68;;;16.00;66.50;;;;;;5075476;28;20032;-68
2023/12/28 10:54:46;;;;;;;0.80;0.75;;;16.00;66.40;;;;;;5075464;28;20108;-69
2023/12/28 10:57:27;;;;;;;0.40;0.40;;;15.90;66.80;;;;;;5075460;28;20068;-68
2023/12/28 11:00:00;;;;;;;1.33;1.23;;;16.00;66.70;;;;;;5057744;28;20028;-68
2023/12/28 11:02:33;;;;;;;0.65;0.65;;;16.00;66.30;;;;;;5074693;28;20534;-69
2023/12/28 11:05:00;;;;;;;0.50;0.50;;;16.00;66.70;;;;;;5074989;28;20082;-68
2023/12/28 11:07:32;;;;;;;0.45;0.45;;;16.00;67.10;;;;;;5074602;28;20379;-69
2023/12/28 11:10:00;;;;;;;0.50;0.50;;;16.10;65.80;;;;;;5074775;28;20049;-68
2023/12/28 11:12:27;;;;;;;0.40;0.40;;;16.20;64.80;;;;;;5074496;28;20028;-70
2023/12/28 11:14:53;;;;;;;0.50;0.50;;;16.20;66.60;;;;;;5074882;28;20490;-68
2023/12/28 11:17:20;;;;;;;0.40;0.40;;;16.30;66.90;;;;;;5074718;28;20020;-68
2023/12/28 11:19:48;;;;;;;0.40;0.40;;;16.40;67.20;;;;;;5059626;28;20040;-68
2023/12/28 11:22:14;;;;;;;0.63;0.63;;;16.40;66.70;;;;;;5074899;28;20487;-68
2023/12/28 11:24:40;;;;;;;0.40;0.40;;;16.50;67.20;;;;;;5074852;28;20060;-68
2023/12/28 11:27:06;;;;;;;0.50;0.50;;;16.70;66.00;;;;;;5056750;28;20063;-67
2023/12/28 11:29:32;;;;;;;0.50;0.50;;;16.70;65.90;;;;;;5056839;28;20498;-68
2023/12/28 11:31:58;;;;;;;0.80;0.80;;;16.70;64.80;;;;;;5074996;28;20047;-67
2023/12/28 11:34:33;;;;;;;1.42;1.35;;;16.70;66.30;;;;;;5074833;28;20033;-68
2023/12/28 11:37:13;;;;;;;0.70;0.70;;;16.70;65.10;;;;;;5074470;28;20077;-69
2023/12/28 11:39:43;;;;;;;0.60;0.60;;;16.80;65.80;;;;;;5074668;28;20036;-67
2023/12/28 11:42:09;;;;;;;0.40;0.40;;;16.80;65.70;;;;;;5074721;28;20267;-67
2023/12/28 11:44:41;;;;;;;1.35;0.60;;;16.80;65.70;;;;;;5056515;28;20048;-68
2023/12/28 11:47:23;;;;;;;0.40;0.40;;;16.80;64.50;;;;;;5074334;28;20026;-68
2023/12/28 11:49:51;;;;;;;0.45;0.45;;;16.80;65.70;;;;;;5074622;28;20429;-68
2023/12/28 11:52:28;;;;;;;0.68;0.68;;;16.90;64.70;;;;;;5074208;28;20017;-69
2023/12/28 11:54:54;;;;;;;0.40;0.40;;;16.80;64.20;;;;;;5056378;28;20513;-67
2023/12/28 11:57:20;;;;;;;0.40;0.40;;;16.80;64.20;;;;;;5074155;28;20032;-68
2023/12/28 11:59:47;;;;;;;1.10;1.08;;;16.80;63.20;;;;;;5074413;28;20376;-68
2023/12/28 12:02:13;;;;;;;0.45;0.45;;;16.70;62.90;;;;;;5055985;28;20050;-67
2023/12/28 12:04:39;;;;;;;0.47;0.47;;;16.70;63.90;;;;;;5074197;28;20036;-67
2023/12/28 12:07:05;;;;;;;0.50;0.50;;;16.70;64.40;;;;;;5073866;28;20025;-69
2023/12/28 12:09:34;;;;;;;0.40;0.40;;;16.70;65.30;;;;;;5073922;28;20025;-68
2023/12/28 12:12:03;;;;;;;6.13;1.58;;;16.70;64.60;;;;;;5073873;28;20029;-68
2023/12/28 12:14:30;;;;;;;0.55;0.55;;;16.70;64.60;;;;;;5074044;28;20524;-68
2023/12/28 12:16:56;;;;;;;0.60;0.60;;;16.70;63.70;;;;;;5056116;28;20067;-67
2023/12/28 12:19:26;;;;;;;0.47;0.47;;;16.60;64.80;;;;;;5073839;28;20453;-68
2023/12/28 12:21:55;;;;;;;0.50;0.50;;;16.70;64.30;;;;;;5073686;28;20085;-67
2023/12/28 12:24:22;;;;;;;0.45;0.45;;;16.70;65.80;;;;;;5055631;28;20039;-66
2023/12/28 12:26:50;;;;;;;0.60;0.60;;;16.70;64.90;;;;;;5073499;28;20408;-67
2023/12/28 12:29:15;;;;;;;0.95;0.95;;;16.70;64.20;;;;;;5073442;28;20020;-67
2023/12/28 12:31:42;;;;;;;0.50;0.50;;;16.70;64.40;;;;;;5073485;28;20033;-69
2023/12/28 12:34:09;;;;;;;0.50;0.50;;;16.70;64.20;;;;;;5073415;28;20043;-66
2023/12/28 12:36:35;;;;;;;0.40;0.40;;;16.70;65.60;;;;;;5073365;28;20402;-66
2023/12/28 12:39:01;;;;;;;2.65;1.58;;;16.80;65.10;;;;;;5073616;28;20128;-67
2023/12/28 12:41:27;;;;;;;0.70;0.70;;;16.80;64.20;;;;;;5055824;28;20395;-67
2023/12/28 12:43:56;;;;;;;4.95;1.60;;;16.80;63.90;;;;;;5073187;28;20040;-66
2023/12/28 12:46:22;;;;;;;3.75;1.38;;;16.80;63.50;;;;;;5073539;28;20104;-67